Antioch, MS

3:27 AM CDT on July 24, 2014 (GMT -0500)
N5PA (KMSELLIS5) Elev 271 ft | 31.62 °N, 89.23 °W | Change Station

Current weather conditions updated 5 seconds ago

Clear
Clear
72.3 °F
Feels Like 70 °F
N
0.0
Wind Variable Wind from West
Gusts 0.0 mph

Today is forecast to be Warmer than yesterday. Afternoon thunderstorms.

Today
High -- | Low -- °F
--% Chance of Precip.
Yesterday
High -- | Low -- °F
Precip. -- in
6:07 AM 7:58 PM
Waning Crescent, 6% visible
Pressure 29.98 in
Visibility 7.0 miles
Clouds Clear
Heat Index 70 °F
Dew Point 68 °F
Humidity 88%
Rainfall 0.00 in
Snow Depth Not available.
UV 0 out of 12
Pollen 3.30 out of 12
Air Quality Not available.
Flu Activity Not available.
METAR KHBG 240753Z AUTO 15003KT 7SM CLR 23/22 A2998 RMK AO2 SLP150 T02280217

More Conditions Fewer Conditions

Pressure 29.98 in
Visibility 7.0 miles
Clouds Clear
Heat Index 70 °F
Dew Point 68 °F
Humidity 88%
Rainfall 0.00 in
Snow Depth Not available.
UV 0 out of 12
Pollen 3.30 out of 12
Air Quality Not available.
Flu Activity Not available.
METAR KHBG 240753Z AUTO 15003KT 7SM CLR 23/22 A2998 RMK AO2 SLP150 T02280217

More Conditions Fewer Conditions

10-Day Weather Forecast

Almanac

Astronomy

Jul. 24, 2014 Rise Set
Actual Time 6:07 AM CDT 7:58 PM CDT
Civil Twilight 5:40 AM CDT 8:25 PM CDT
Nautical Twilight 5:07 AM CDT 8:57 PM CDT
Astronomical Twilight 4:32 AM CDT 9:32 PM CDT
Moon 4:13 AM CDT 6:15 PM CDT
Length of Visible Light 14h 45m
Length of Day
13h 51m
Tomorrow will be 1m 15s shorter.
Waning Crescent, 6% of the Moon is Illuminated
Today
Waning Crescent
Jul 26
New
Aug 3
First Quarter
Aug 10
Full
Aug 17
Last Quarter

Today's Extremes

State Highs State Lows

Community

WunderPhotos

Upload Photos

1,736,950 photos uploaded!

Nearby

Snow Depth

Station Depth Elevation
No new snow has been reported.

Earthquake Activity

City Distance Mag. Time & Date
No recent earthquake activity has been reported nearby.
Minimum magnitude displayed is 2.5.

Coastal Water Temperatures

Place Temperature
No Stations Reporting

Nearby Weather Stations

Station Location Temp. Heat Index Dew Point Humidity Wind Precip. Elev Updated Type
N5PA, Ellisville, MS 72.3 °F 70 °F 68 °F 88% West  at  0.0 mph 0.00 in / hr 271 ft 3:27 AM CDT Rapid Fire

Show More Stations Show Fewer Stations